ENOV/HOV METAR and TAF weather

Enter ICAO airport designator
Station Type Date Time Source
ENOV METAR 2019/08/18 20:50 UTC NOAA

ENOV 182050Z VRB01KT CAVOK 10/09 Q0996 RMK WIND 2175FT 12012KT


Station Type Date Time Source
ENOV Decoded METAR 2019/08/18 20:50 UTC NOAA

Station name not available
Aug 18, 2019 - 04:50 PM EDT / 2019.08.18 2050 UTC
Wind: Variable at 1 MPH (1 KT):0
Visibility: greater than 7 mile(s):0
Temperature: 50 F (10 C)
Dew Point: 48 F (9 C)
Relative Humidity: 93%
Pressure (altimeter): 29.41 in. Hg (0996 hPa)
ob: ENOV 182050Z VRB01KT CAVOK 10/09 Q0996 RMK WIND 2175FT 12012KT
cycle: 21

Station Type Date Time Source
ENOV TAF UTC NOAA

Error!

Example: see airport list